Lorah, Iowa
Current Conditions -  °F | °C
As of 8:35 PM on Tuesday 21 Oct 2014 (Local Time) from KAIO Reporting Station
Few Clouds Few Clouds  
Wind Chill: 59°   Ceiling: Unl
Heat Index: 59°   Visibility: 7mi
Dew Point: 45°   Wind: 10mph
Humidity: 59%   Direction: 110°ESE
Pressure: 30.08"   Gusts: NA
Location:  41.4037°N, 95.0217°W
Report Text: KAIO 220135Z AUTO 11009KT 7SM FEW038 15/07 A3008 RMK AO2
Loading
Personal Weather Stations






























Interactive Weather Map
Tropical Storm Tracking
New forecast layout! Learn more

10-Day Weather Forecast

Advertisements
Track Severe Weather on mobile